sensor_id;sensor_type;location;lat;lon;timestamp;P1;durP1;ratioP1;P2;durP2;ratioP2
70303;SDS011;57712;48.752;11.348;2023-07-13T00:01:48;5.70;;;2.08;;
70303;SDS011;57712;48.752;11.348;2023-07-13T00:04:17;6.40;;;2.50;;
70303;SDS011;57712;48.752;11.348;2023-07-13T00:06:45;8.18;;;2.22;;
70303;SDS011;57712;48.752;11.348;2023-07-13T00:09:16;7.05;;;2.30;;
70303;SDS011;57712;48.752;11.348;2023-07-13T00:11:45;7.57;;;2.43;;
70303;SDS011;57712;48.752;11.348;2023-07-13T00:14:15;6.93;;;2.50;;
70303;SDS011;57712;48.752;11.348;2023-07-13T00:16:42;7.70;;;2.28;;
70303;SDS011;57712;48.752;11.348;2023-07-13T00:19:12;6.50;;;2.60;;
70303;SDS011;57712;48.752;11.348;2023-07-13T00:21:40;8.63;;;2.40;;
70303;SDS011;57712;48.752;11.348;2023-07-13T00:24:07;5.77;;;2.33;;
70303;SDS011;57712;48.752;11.348;2023-07-13T00:26:39;7.80;;;2.53;;
70303;SDS011;57712;48.752;11.348;2023-07-13T00:29:07;6.80;;;2.67;;
70303;SDS011;57712;48.752;11.348;2023-07-13T00:31:35;7.22;;;2.63;;
70303;SDS011;57712;48.752;11.348;2023-07-13T00:34:02;7.13;;;2.63;;
70303;SDS011;57712;48.752;11.348;2023-07-13T00:36:30;8.37;;;2.73;;
70303;SDS011;57712;48.752;11.348;2023-07-13T00:38:57;7.82;;;3.38;;
70303;SDS011;57712;48.752;11.348;2023-07-13T00:41:24;8.82;;;3.10;;
70303;SDS011;57712;48.752;11.348;2023-07-13T00:43:51;7.03;;;2.88;;
70303;SDS011;57712;48.752;11.348;2023-07-13T00:46:20;7.43;;;2.72;;
70303;SDS011;57712;48.752;11.348;2023-07-13T00:48:50;8.77;;;2.93;;
70303;SDS011;57712;48.752;11.348;2023-07-13T00:51:19;9.27;;;3.10;;
70303;SDS011;57712;48.752;11.348;2023-07-13T00:53:52;10.05;;;3.28;;
70303;SDS011;57712;48.752;11.348;2023-07-13T00:56:22;9.52;;;3.50;;
70303;SDS011;57712;48.752;11.348;2023-07-13T00:58:49;7.78;;;3.63;;
70303;SDS011;57712;48.752;11.348;2023-07-13T01:01:16;9.50;;;3.43;;
70303;SDS011;57712;48.752;11.348;2023-07-13T01:03:43;8.80;;;3.25;;
70303;SDS011;57712;48.752;11.348;2023-07-13T01:06:10;11.23;;;3.45;;
70303;SDS011;57712;48.752;11.348;2023-07-13T01:08:37;7.63;;;3.20;;
70303;SDS011;57712;48.752;11.348;2023-07-13T01:11:05;8.48;;;3.50;;
70303;SDS011;57712;48.752;11.348;2023-07-13T01:13:34;10.77;;;3.60;;
70303;SDS011;57712;48.752;11.348;2023-07-13T01:16:02;8.75;;;3.22;;
70303;SDS011;57712;48.752;11.348;2023-07-13T01:18:38;12.88;;;4.20;;
70303;SDS011;57712;48.752;11.348;2023-07-13T01:21:05;8.85;;;3.60;;
70303;SDS011;57712;48.752;11.348;2023-07-13T01:23:32;9.57;;;4.35;;
70303;SDS011;57712;48.752;11.348;2023-07-13T01:25:59;9.00;;;3.83;;
70303;SDS011;57712;48.752;11.348;2023-07-13T01:28:27;8.15;;;4.40;;
70303;SDS011;57712;48.752;11.348;2023-07-13T01:30:55;10.75;;;4.28;;
70303;SDS011;57712;48.752;11.348;2023-07-13T01:33:23;7.88;;;3.78;;
70303;SDS011;57712;48.752;11.348;2023-07-13T01:35:50;9.40;;;3.70;;
70303;SDS011;57712;48.752;11.348;2023-07-13T01:38:21;10.70;;;4.00;;
70303;SDS011;57712;48.752;11.348;2023-07-13T01:40:50;7.78;;;3.85;;
70303;SDS011;57712;48.752;11.348;2023-07-13T01:43:17;10.48;;;3.80;;
70303;SDS011;57712;48.752;11.348;2023-07-13T01:45:45;14.27;;;3.15;;
70303;SDS011;57712;48.752;11.348;2023-07-13T01:48:13;10.52;;;3.50;;
70303;SDS011;57712;48.752;11.348;2023-07-13T01:50:40;11.83;;;3.60;;
70303;SDS011;57712;48.752;11.348;2023-07-13T01:53:07;10.00;;;3.63;;
70303;SDS011;57712;48.752;11.348;2023-07-13T01:55:34;12.63;;;3.88;;
70303;SDS011;57712;48.752;11.348;2023-07-13T01:58:02;9.50;;;3.95;;
70303;SDS011;57712;48.752;11.348;2023-07-13T02:00:29;10.30;;;4.10;;
70303;SDS011;57712;48.752;11.348;2023-07-13T02:02:57;10.00;;;4.33;;
70303;SDS011;57712;48.752;11.348;2023-07-13T02:05:24;10.20;;;3.72;;
70303;SDS011;57712;48.752;11.348;2023-07-13T02:07:51;10.30;;;4.05;;
70303;SDS011;57712;48.752;11.348;2023-07-13T02:10:19;14.32;;;4.05;;
70303;SDS011;57712;48.752;11.348;2023-07-13T02:12:48;11.93;;;4.45;;
70303;SDS011;57712;48.752;11.348;2023-07-13T02:15:17;8.50;;;4.37;;
70303;SDS011;57712;48.752;11.348;2023-07-13T02:17:44;11.95;;;4.65;;
70303;SDS011;57712;48.752;11.348;2023-07-13T02:20:11;12.05;;;5.13;;
70303;SDS011;57712;48.752;11.348;2023-07-13T02:22:38;15.93;;;4.68;;
70303;SDS011;57712;48.752;11.348;2023-07-13T02:25:05;10.60;;;4.82;;
70303;SDS011;57712;48.752;11.348;2023-07-13T02:27:32;17.17;;;5.43;;
70303;SDS011;57712;48.752;11.348;2023-07-13T02:29:59;13.95;;;5.22;;
70303;SDS011;57712;48.752;11.348;2023-07-13T02:32:26;16.88;;;5.90;;
70303;SDS011;57712;48.752;11.348;2023-07-13T02:34:53;16.27;;;6.47;;
70303;SDS011;57712;48.752;11.348;2023-07-13T02:37:20;14.68;;;7.20;;
70303;SDS011;57712;48.752;11.348;2023-07-13T02:39:47;15.07;;;8.70;;
70303;SDS011;57712;48.752;11.348;2023-07-13T02:42:14;16.80;;;8.15;;
70303;SDS011;57712;48.752;11.348;2023-07-13T02:44:41;20.45;;;9.10;;
70303;SDS011;57712;48.752;11.348;2023-07-13T02:47:08;17.52;;;9.60;;
70303;SDS011;57712;48.752;11.348;2023-07-13T02:49:35;17.88;;;9.18;;
70303;SDS011;57712;48.752;11.348;2023-07-13T02:52:04;20.13;;;9.40;;
70303;SDS011;57712;48.752;11.348;2023-07-13T02:54:31;17.00;;;9.55;;
70303;SDS011;57712;48.752;11.348;2023-07-13T02:56:58;18.60;;;9.85;;
70303;SDS011;57712;48.752;11.348;2023-07-13T02:59:24;16.08;;;9.55;;
70303;SDS011;57712;48.752;11.348;2023-07-13T03:01:51;19.50;;;8.98;;
70303;SDS011;57712;48.752;11.348;2023-07-13T03:04:18;20.83;;;10.17;;
70303;SDS011;57712;48.752;11.348;2023-07-13T03:06:46;15.13;;;9.80;;
70303;SDS011;57712;48.752;11.348;2023-07-13T03:09:13;15.10;;;9.50;;
70303;SDS011;57712;48.752;11.348;2023-07-13T03:11:41;17.08;;;9.68;;
70303;SDS011;57712;48.752;11.348;2023-07-13T03:14:08;22.27;;;9.43;;
70303;SDS011;57712;48.752;11.348;2023-07-13T03:16:35;21.97;;;9.67;;
70303;SDS011;57712;48.752;11.348;2023-07-13T03:19:01;22.25;;;9.05;;
70303;SDS011;57712;48.752;11.348;2023-07-13T03:21:28;18.52;;;9.18;;
70303;SDS011;57712;48.752;11.348;2023-07-13T03:23:55;17.58;;;8.90;;
70303;SDS011;57712;48.752;11.348;2023-07-13T03:26:22;15.25;;;8.90;;
70303;SDS011;57712;48.752;11.348;2023-07-13T03:28:49;18.30;;;8.63;;
70303;SDS011;57712;48.752;11.348;2023-07-13T03:31:17;15.93;;;7.82;;
70303;SDS011;57712;48.752;11.348;2023-07-13T03:33:46;16.33;;;7.70;;
70303;SDS011;57712;48.752;11.348;2023-07-13T03:36:18;13.77;;;8.07;;
70303;SDS011;57712;48.752;11.348;2023-07-13T03:38:47;16.40;;;8.98;;
70303;SDS011;57712;48.752;11.348;2023-07-13T03:41:16;14.83;;;7.30;;
70303;SDS011;57712;48.752;11.348;2023-07-13T03:43:43;16.27;;;7.35;;
70303;SDS011;57712;48.752;11.348;2023-07-13T03:46:09;12.95;;;6.65;;
70303;SDS011;57712;48.752;11.348;2023-07-13T03:48:37;13.45;;;6.03;;
70303;SDS011;57712;48.752;11.348;2023-07-13T03:51:06;18.77;;;6.70;;
70303;SDS011;57712;48.752;11.348;2023-07-13T03:53:33;13.97;;;5.87;;
70303;SDS011;57712;48.752;11.348;2023-07-13T03:56:01;13.95;;;6.20;;
70303;SDS011;57712;48.752;11.348;2023-07-13T03:58:33;14.55;;;5.50;;
70303;SDS011;57712;48.752;11.348;2023-07-13T04:01:01;11.73;;;5.60;;
70303;SDS011;57712;48.752;11.348;2023-07-13T04:03:29;12.20;;;5.95;;
70303;SDS011;57712;48.752;11.348;2023-07-13T04:05:59;11.87;;;5.70;;
70303;SDS011;57712;48.752;11.348;2023-07-13T04:08:28;10.18;;;5.10;;
70303;SDS011;57712;48.752;11.348;2023-07-13T04:10:58;11.10;;;6.00;;
70303;SDS011;57712;48.752;11.348;2023-07-13T04:13:25;12.02;;;5.40;;
70303;SDS011;57712;48.752;11.348;2023-07-13T04:15:53;11.25;;;5.60;;
70303;SDS011;57712;48.752;11.348;2023-07-13T04:18:20;14.17;;;5.00;;
70303;SDS011;57712;48.752;11.348;2023-07-13T04:20:48;15.27;;;5.75;;
70303;SDS011;57712;48.752;11.348;2023-07-13T04:23:16;13.50;;;5.05;;
70303;SDS011;57712;48.752;11.348;2023-07-13T04:25:47;10.50;;;5.07;;
70303;SDS011;57712;48.752;11.348;2023-07-13T04:28:16;13.13;;;5.38;;
70303;SDS011;57712;48.752;11.348;2023-07-13T04:30:44;12.37;;;4.93;;
70303;SDS011;57712;48.752;11.348;2023-07-13T04:33:11;19.10;;;5.00;;
70303;SDS011;57712;48.752;11.348;2023-07-13T04:35:38;10.18;;;4.45;;
70303;SDS011;57712;48.752;11.348;2023-07-13T04:38:05;13.00;;;5.57;;
70303;SDS011;57712;48.752;11.348;2023-07-13T04:40:32;11.68;;;5.38;;
70303;SDS011;57712;48.752;11.348;2023-07-13T04:42:59;9.90;;;4.27;;
70303;SDS011;57712;48.752;11.348;2023-07-13T04:45:26;11.32;;;4.03;;
70303;SDS011;57712;48.752;11.348;2023-07-13T04:47:52;10.07;;;4.22;;
70303;SDS011;57712;48.752;11.348;2023-07-13T04:50:19;12.40;;;4.05;;
70303;SDS011;57712;48.752;11.348;2023-07-13T04:52:52;8.73;;;4.18;;
70303;SDS011;57712;48.752;11.348;2023-07-13T04:55:19;7.93;;;4.07;;
70303;SDS011;57712;48.752;11.348;2023-07-13T04:57:46;8.25;;;3.72;;
70303;SDS011;57712;48.752;11.348;2023-07-13T05:00:14;9.70;;;3.65;;
70303;SDS011;57712;48.752;11.348;2023-07-13T05:02:45;11.90;;;3.38;;
70303;SDS011;57712;48.752;11.348;2023-07-13T05:05:13;7.60;;;3.60;;
70303;SDS011;57712;48.752;11.348;2023-07-13T05:07:39;8.40;;;3.10;;
70303;SDS011;57712;48.752;11.348;2023-07-13T05:10:06;7.82;;;3.63;;
70303;SDS011;57712;48.752;11.348;2023-07-13T05:12:33;9.18;;;3.22;;
70303;SDS011;57712;48.752;11.348;2023-07-13T05:15:01;9.90;;;3.38;;
70303;SDS011;57712;48.752;11.348;2023-07-13T05:17:28;9.68;;;3.28;;
70303;SDS011;57712;48.752;11.348;2023-07-13T05:19:55;8.47;;;3.33;;
70303;SDS011;57712;48.752;11.348;2023-07-13T05:22:22;8.13;;;2.72;;
70303;SDS011;57712;48.752;11.348;2023-07-13T05:24:49;8.55;;;3.58;;
70303;SDS011;57712;48.752;11.348;2023-07-13T05:27:18;9.95;;;3.33;;
70303;SDS011;57712;48.752;11.348;2023-07-13T05:29:45;9.18;;;2.85;;
70303;SDS011;57712;48.752;11.348;2023-07-13T05:32:11;6.27;;;2.90;;
70303;SDS011;57712;48.752;11.348;2023-07-13T05:34:38;7.65;;;2.88;;
70303;SDS011;57712;48.752;11.348;2023-07-13T05:37:05;6.68;;;2.67;;
70303;SDS011;57712;48.752;11.348;2023-07-13T05:39:32;8.23;;;3.35;;
70303;SDS011;57712;48.752;11.348;2023-07-13T05:41:59;8.38;;;2.40;;
70303;SDS011;57712;48.752;11.348;2023-07-13T05:44:25;7.93;;;2.60;;
70303;SDS011;57712;48.752;11.348;2023-07-13T05:46:52;7.75;;;2.58;;
70303;SDS011;57712;48.752;11.348;2023-07-13T05:49:20;7.65;;;2.85;;
70303;SDS011;57712;48.752;11.348;2023-07-13T05:51:46;7.07;;;2.83;;
70303;SDS011;57712;48.752;11.348;2023-07-13T05:54:13;6.78;;;2.25;;
70303;SDS011;57712;48.752;11.348;2023-07-13T05:56:40;6.53;;;2.77;;
70303;SDS011;57712;48.752;11.348;2023-07-13T05:59:06;6.35;;;2.60;;
70303;SDS011;57712;48.752;11.348;2023-07-13T06:01:33;7.03;;;2.67;;
70303;SDS011;57712;48.752;11.348;2023-07-13T06:04:00;5.72;;;2.15;;
70303;SDS011;57712;48.752;11.348;2023-07-13T06:06:27;6.40;;;2.30;;
70303;SDS011;57712;48.752;11.348;2023-07-13T06:08:55;6.43;;;2.03;;
70303;SDS011;57712;48.752;11.348;2023-07-13T06:11:23;6.28;;;2.47;;
70303;SDS011;57712;48.752;11.348;2023-07-13T06:13:52;8.52;;;2.20;;
70303;SDS011;57712;48.752;11.348;2023-07-13T06:16:19;6.18;;;2.40;;
70303;SDS011;57712;48.752;11.348;2023-07-13T06:18:46;6.45;;;2.17;;
70303;SDS011;57712;48.752;11.348;2023-07-13T06:21:14;6.17;;;2.20;;
70303;SDS011;57712;48.752;11.348;2023-07-13T06:23:46;5.50;;;2.00;;
70303;SDS011;57712;48.752;11.348;2023-07-13T06:26:17;7.07;;;2.47;;
70303;SDS011;57712;48.752;11.348;2023-07-13T06:28:45;7.38;;;2.30;;
70303;SDS011;57712;48.752;11.348;2023-07-13T06:31:12;5.90;;;2.20;;
70303;SDS011;57712;48.752;11.348;2023-07-13T06:33:40;5.97;;;2.30;;
70303;SDS011;57712;48.752;11.348;2023-07-13T06:36:07;5.28;;;1.77;;
70303;SDS011;57712;48.752;11.348;2023-07-13T06:38:35;5.20;;;2.22;;
70303;SDS011;57712;48.752;11.348;2023-07-13T06:41:03;5.25;;;2.03;;
70303;SDS011;57712;48.752;11.348;2023-07-13T06:43:30;6.10;;;1.80;;
70303;SDS011;57712;48.752;11.348;2023-07-13T06:45:58;4.97;;;1.63;;
70303;SDS011;57712;48.752;11.348;2023-07-13T06:48:25;5.10;;;1.95;;
70303;SDS011;57712;48.752;11.348;2023-07-13T06:50:52;6.25;;;2.03;;
70303;SDS011;57712;48.752;11.348;2023-07-13T06:53:19;6.63;;;2.20;;
70303;SDS011;57712;48.752;11.348;2023-07-13T06:55:47;5.85;;;2.20;;
70303;SDS011;57712;48.752;11.348;2023-07-13T06:58:17;5.90;;;2.67;;
70303;SDS011;57712;48.752;11.348;2023-07-13T07:00:45;5.20;;;1.92;;
70303;SDS011;57712;48.752;11.348;2023-07-13T07:03:13;6.30;;;1.90;;
70303;SDS011;57712;48.752;11.348;2023-07-13T07:05:40;6.25;;;1.60;;
70303;SDS011;57712;48.752;11.348;2023-07-13T07:08:07;6.45;;;2.10;;
70303;SDS011;57712;48.752;11.348;2023-07-13T07:10:34;4.90;;;1.87;;
70303;SDS011;57712;48.752;11.348;2023-07-13T07:13:03;8.30;;;2.63;;
70303;SDS011;57712;48.752;11.348;2023-07-13T07:15:30;7.00;;;2.45;;
70303;SDS011;57712;48.752;11.348;2023-07-13T07:17:56;6.28;;;1.75;;
70303;SDS011;57712;48.752;11.348;2023-07-13T07:20:23;5.30;;;2.20;;
70303;SDS011;57712;48.752;11.348;2023-07-13T07:22:50;5.73;;;2.37;;
70303;SDS011;57712;48.752;11.348;2023-07-13T07:25:17;6.00;;;2.00;;
70303;SDS011;57712;48.752;11.348;2023-07-13T07:27:44;5.47;;;2.40;;
70303;SDS011;57712;48.752;11.348;2023-07-13T07:30:14;6.65;;;2.28;;
70303;SDS011;57712;48.752;11.348;2023-07-13T07:32:44;4.82;;;1.98;;
70303;SDS011;57712;48.752;11.348;2023-07-13T07:35:14;7.57;;;2.40;;
70303;SDS011;57712;48.752;11.348;2023-07-13T07:37:42;6.45;;;2.15;;
70303;SDS011;57712;48.752;11.348;2023-07-13T07:40:12;5.55;;;1.90;;
70303;SDS011;57712;48.752;11.348;2023-07-13T07:42:42;5.63;;;2.15;;
70303;SDS011;57712;48.752;11.348;2023-07-13T07:45:09;7.47;;;1.98;;
70303;SDS011;57712;48.752;11.348;2023-07-13T07:47:38;6.80;;;2.07;;
70303;SDS011;57712;48.752;11.348;2023-07-13T07:50:05;6.60;;;2.45;;
70303;SDS011;57712;48.752;11.348;2023-07-13T07:52:35;8.23;;;2.22;;
70303;SDS011;57712;48.752;11.348;2023-07-13T07:55:03;7.18;;;2.35;;
70303;SDS011;57712;48.752;11.348;2023-07-13T07:57:36;4.55;;;1.80;;
70303;SDS011;57712;48.752;11.348;2023-07-13T08:00:06;5.23;;;2.10;;
70303;SDS011;57712;48.752;11.348;2023-07-13T08:02:36;6.18;;;2.03;;
70303;SDS011;57712;48.752;11.348;2023-07-13T08:05:06;7.97;;;2.20;;
70303;SDS011;57712;48.752;11.348;2023-07-13T08:07:37;5.95;;;2.08;;
70303;SDS011;57712;48.752;11.348;2023-07-13T08:10:05;5.70;;;2.25;;
70303;SDS011;57712;48.752;11.348;2023-07-13T08:12:37;6.00;;;1.90;;
70303;SDS011;57712;48.752;11.348;2023-07-13T08:15:09;4.97;;;1.98;;
70303;SDS011;57712;48.752;11.348;2023-07-13T08:17:39;4.85;;;1.60;;
70303;SDS011;57712;48.752;11.348;2023-07-13T08:20:06;5.47;;;1.80;;
70303;SDS011;57712;48.752;11.348;2023-07-13T08:22:35;6.28;;;1.63;;
70303;SDS011;57712;48.752;11.348;2023-07-13T08:25:02;6.47;;;1.93;;
70303;SDS011;57712;48.752;11.348;2023-07-13T08:27:29;8.05;;;2.30;;
70303;SDS011;57712;48.752;11.348;2023-07-13T08:29:56;7.30;;;2.25;;
70303;SDS011;57712;48.752;11.348;2023-07-13T08:32:23;6.65;;;2.03;;
70303;SDS011;57712;48.752;11.348;2023-07-13T08:34:50;6.28;;;1.48;;
70303;SDS011;57712;48.752;11.348;2023-07-13T08:37:17;5.33;;;2.17;;
70303;SDS011;57712;48.752;11.348;2023-07-13T08:39:45;6.80;;;1.55;;
70303;SDS011;57712;48.752;11.348;2023-07-13T08:47:14;5.60;;;1.90;;
70303;SDS011;57712;48.752;11.348;2023-07-13T08:49:43;7.27;;;1.93;;
70303;SDS011;57712;48.752;11.348;2023-07-13T08:52:12;5.68;;;1.80;;
70303;SDS011;57712;48.752;11.348;2023-07-13T08:54:44;7.38;;;1.92;;
70303;SDS011;57712;48.752;11.348;2023-07-13T08:57:16;5.63;;;1.60;;
70303;SDS011;57712;48.752;11.348;2023-07-13T08:59:46;5.38;;;1.63;;
70303;SDS011;57712;48.752;11.348;2023-07-13T09:02:17;5.73;;;1.73;;
70303;SDS011;57712;48.752;11.348;2023-07-13T09:04:58;6.90;;;2.05;;
70303;SDS011;57712;48.752;11.348;2023-07-13T09:10:32;4.82;;;1.48;;
70303;SDS011;57712;48.752;11.348;2023-07-13T09:15:44;7.07;;;2.00;;
70303;SDS011;57712;48.752;11.348;2023-07-13T09:21:03;4.75;;;1.42;;
70303;SDS011;57712;48.752;11.348;2023-07-13T09:23:42;4.38;;;1.45;;
70303;SDS011;57712;48.752;11.348;2023-07-13T09:26:20;6.28;;;1.42;;
70303;SDS011;57712;48.752;11.348;2023-07-13T09:28:49;7.20;;;1.73;;
70303;SDS011;57712;48.752;11.348;2023-07-13T09:31:23;6.43;;;1.40;;
70303;SDS011;57712;48.752;11.348;2023-07-13T09:33:56;5.75;;;1.83;;
70303;SDS011;57712;48.752;11.348;2023-07-13T09:36:33;5.55;;;1.60;;
70303;SDS011;57712;48.752;11.348;2023-07-13T09:41:41;6.17;;;1.60;;
70303;SDS011;57712;48.752;11.348;2023-07-13T09:44:34;4.93;;;1.48;;
70303;SDS011;57712;48.752;11.348;2023-07-13T09:47:02;4.57;;;1.50;;
70303;SDS011;57712;48.752;11.348;2023-07-13T09:49:34;6.40;;;1.52;;
70303;SDS011;57712;48.752;11.348;2023-07-13T09:52:09;4.47;;;1.38;;
70303;SDS011;57712;48.752;11.348;2023-07-13T09:54:37;4.90;;;1.47;;
70303;SDS011;57712;48.752;11.348;2023-07-13T09:57:18;5.03;;;1.27;;
70303;SDS011;57712;48.752;11.348;2023-07-13T09:59:59;5.07;;;1.52;;
70303;SDS011;57712;48.752;11.348;2023-07-13T10:02:33;6.13;;;1.55;;
70303;SDS011;57712;48.752;11.348;2023-07-13T10:05:06;6.60;;;1.60;;
70303;SDS011;57712;48.752;11.348;2023-07-13T10:07:38;5.77;;;1.67;;
70303;SDS011;57712;48.752;11.348;2023-07-13T10:10:13;5.78;;;1.52;;
70303;SDS011;57712;48.752;11.348;2023-07-13T10:12:42;3.97;;;1.20;;
70303;SDS011;57712;48.752;11.348;2023-07-13T10:15:17;4.88;;;1.52;;
70303;SDS011;57712;48.752;11.348;2023-07-13T10:17:53;5.72;;;1.50;;
70303;SDS011;57712;48.752;11.348;2023-07-13T10:20:22;5.07;;;1.40;;
70303;SDS011;57712;48.752;11.348;2023-07-13T10:23:02;5.13;;;1.25;;
70303;SDS011;57712;48.752;11.348;2023-07-13T10:25:32;6.03;;;1.48;;
70303;SDS011;57712;48.752;11.348;2023-07-13T10:28:06;4.30;;;1.27;;
70303;SDS011;57712;48.752;11.348;2023-07-13T10:30:40;4.72;;;1.67;;
70303;SDS011;57712;48.752;11.348;2023-07-13T10:33:10;4.93;;;1.50;;
70303;SDS011;57712;48.752;11.348;2023-07-13T10:35:40;4.80;;;1.67;;
70303;SDS011;57712;48.752;11.348;2023-07-13T10:38:13;4.05;;;1.25;;
70303;SDS011;57712;48.752;11.348;2023-07-13T10:43:34;5.10;;;1.60;;
70303;SDS011;57712;48.752;11.348;2023-07-13T10:46:09;4.53;;;1.83;;
70303;SDS011;57712;48.752;11.348;2023-07-13T10:48:39;5.35;;;1.98;;
70303;SDS011;57712;48.752;11.348;2023-07-13T10:51:08;4.15;;;1.10;;
70303;SDS011;57712;48.752;11.348;2023-07-13T10:53:37;5.18;;;1.42;;
70303;SDS011;57712;48.752;11.348;2023-07-13T10:56:27;4.88;;;1.80;;
70303;SDS011;57712;48.752;11.348;2023-07-13T10:59:05;5.23;;;1.20;;
70303;SDS011;57712;48.752;11.348;2023-07-13T11:01:39;5.07;;;1.45;;
70303;SDS011;57712;48.752;11.348;2023-07-13T11:04:13;6.00;;;1.55;;
70303;SDS011;57712;48.752;11.348;2023-07-13T11:06:41;4.63;;;1.38;;
70303;SDS011;57712;48.752;11.348;2023-07-13T11:11:45;7.13;;;1.67;;
70303;SDS011;57712;48.752;11.348;2023-07-13T11:30:39;4.63;;;1.63;;
70303;SDS011;57712;48.752;11.348;2023-07-13T11:35:42;4.28;;;1.60;;
70303;SDS011;57712;48.752;11.348;2023-07-13T11:38:57;4.60;;;1.70;;
70303;SDS011;57712;48.752;11.348;2023-07-13T11:41:14;6.25;;;1.90;;
70303;SDS011;57712;48.752;11.348;2023-07-13T11:43:43;5.18;;;1.50;;
70303;SDS011;57712;48.752;11.348;2023-07-13T11:46:12;5.13;;;1.70;;
70303;SDS011;57712;48.752;11.348;2023-07-13T11:48:40;5.80;;;1.70;;
70303;SDS011;57712;48.752;11.348;2023-07-13T11:51:14;6.00;;;2.07;;
70303;SDS011;57712;48.752;11.348;2023-07-13T11:53:50;6.30;;;2.00;;
70303;SDS011;57712;48.752;11.348;2023-07-13T11:56:21;4.78;;;1.63;;
70303;SDS011;57712;48.752;11.348;2023-07-13T11:58:54;4.22;;;1.30;;
70303;SDS011;57712;48.752;11.348;2023-07-13T12:01:24;5.15;;;1.75;;
70303;SDS011;57712;48.752;11.348;2023-07-13T12:04:00;4.57;;;1.60;;
70303;SDS011;57712;48.752;11.348;2023-07-13T12:06:30;6.22;;;1.80;;
70303;SDS011;57712;48.752;11.348;2023-07-13T12:09:00;5.32;;;1.58;;
70303;SDS011;57712;48.752;11.348;2023-07-13T12:11:30;4.65;;;1.45;;
70303;SDS011;57712;48.752;11.348;2023-07-13T12:14:02;5.70;;;2.00;;
70303;SDS011;57712;48.752;11.348;2023-07-13T12:16:29;5.50;;;1.60;;
70303;SDS011;57712;48.752;11.348;2023-07-13T12:19:00;4.57;;;1.60;;
70303;SDS011;57712;48.752;11.348;2023-07-13T12:21:30;4.15;;;1.63;;
70303;SDS011;57712;48.752;11.348;2023-07-13T12:24:00;4.63;;;1.92;;
70303;SDS011;57712;48.752;11.348;2023-07-13T12:26:29;5.32;;;1.60;;
70303;SDS011;57712;48.752;11.348;2023-07-13T12:29:01;5.13;;;2.10;;
70303;SDS011;57712;48.752;11.348;2023-07-13T12:31:36;5.38;;;1.85;;
70303;SDS011;57712;48.752;11.348;2023-07-13T12:34:10;5.65;;;1.85;;
70303;SDS011;57712;48.752;11.348;2023-07-13T12:36:46;5.10;;;1.23;;
70303;SDS011;57712;48.752;11.348;2023-07-13T12:39:22;5.07;;;1.80;;
70303;SDS011;57712;48.752;11.348;2023-07-13T12:42:28;7.60;;;1.50;;
70303;SDS011;57712;48.752;11.348;2023-07-13T12:45:03;4.35;;;1.50;;
70303;SDS011;57712;48.752;11.348;2023-07-13T12:47:32;4.53;;;1.30;;
70303;SDS011;57712;48.752;11.348;2023-07-13T12:50:18;4.20;;;1.63;;
70303;SDS011;57712;48.752;11.348;2023-07-13T12:52:54;4.68;;;1.60;;
70303;SDS011;57712;48.752;11.348;2023-07-13T12:55:25;4.27;;;1.30;;
70303;SDS011;57712;48.752;11.348;2023-07-13T12:57:56;5.68;;;1.70;;
70303;SDS011;57712;48.752;11.348;2023-07-13T13:00:31;6.38;;;1.90;;
70303;SDS011;57712;48.752;11.348;2023-07-13T13:03:05;4.30;;;1.50;;
70303;SDS011;57712;48.752;11.348;2023-07-13T13:05:56;5.22;;;1.65;;
70303;SDS011;57712;48.752;11.348;2023-07-13T13:08:23;4.73;;;1.27;;
70303;SDS011;57712;48.752;11.348;2023-07-13T13:10:50;4.25;;;1.90;;
70303;SDS011;57712;48.752;11.348;2023-07-13T13:13:17;4.10;;;1.70;;
70303;SDS011;57712;48.752;11.348;2023-07-13T13:15:44;5.57;;;1.30;;
70303;SDS011;57712;48.752;11.348;2023-07-13T13:18:15;5.00;;;1.70;;
70303;SDS011;57712;48.752;11.348;2023-07-13T13:20:44;4.73;;;1.77;;
70303;SDS011;57712;48.752;11.348;2023-07-13T13:23:13;4.60;;;1.60;;
70303;SDS011;57712;48.752;11.348;2023-07-13T13:25:45;4.38;;;1.60;;
70303;SDS011;57712;48.752;11.348;2023-07-13T13:28:14;4.45;;;1.50;;
70303;SDS011;57712;48.752;11.348;2023-07-13T13:30:43;4.95;;;1.90;;
70303;SDS011;57712;48.752;11.348;2023-07-13T13:33:11;4.43;;;1.43;;
70303;SDS011;57712;48.752;11.348;2023-07-13T13:35:41;4.50;;;1.88;;
70303;SDS011;57712;48.752;11.348;2023-07-13T13:38:20;6.25;;;1.65;;
70303;SDS011;57712;48.752;11.348;2023-07-13T13:40:51;4.60;;;1.10;;
70303;SDS011;57712;48.752;11.348;2023-07-13T13:43:21;5.90;;;1.58;;
70303;SDS011;57712;48.752;11.348;2023-07-13T13:45:54;3.70;;;1.23;;
70303;SDS011;57712;48.752;11.348;2023-07-13T13:48:32;4.43;;;1.60;;
70303;SDS011;57712;48.752;11.348;2023-07-13T13:51:01;5.25;;;1.48;;
70303;SDS011;57712;48.752;11.348;2023-07-13T13:53:39;4.82;;;1.75;;
70303;SDS011;57712;48.752;11.348;2023-07-13T13:56:05;4.68;;;2.08;;
70303;SDS011;57712;48.752;11.348;2023-07-13T13:58:34;5.60;;;1.80;;
70303;SDS011;57712;48.752;11.348;2023-07-13T14:01:00;5.43;;;1.80;;
70303;SDS011;57712;48.752;11.348;2023-07-13T14:03:27;4.75;;;1.42;;
70303;SDS011;57712;48.752;11.348;2023-07-13T14:05:54;4.30;;;1.92;;
70303;SDS011;57712;48.752;11.348;2023-07-13T14:08:24;5.30;;;1.95;;
70303;SDS011;57712;48.752;11.348;2023-07-13T14:10:51;5.13;;;1.67;;
70303;SDS011;57712;48.752;11.348;2023-07-13T14:13:34;6.65;;;1.60;;
70303;SDS011;57712;48.752;11.348;2023-07-13T14:16:12;4.20;;;1.40;;
70303;SDS011;57712;48.752;11.348;2023-07-13T14:18:46;5.72;;;1.83;;
70303;SDS011;57712;48.752;11.348;2023-07-13T14:21:15;4.63;;;1.55;;
70303;SDS011;57712;48.752;11.348;2023-07-13T14:23:44;4.53;;;1.80;;
70303;SDS011;57712;48.752;11.348;2023-07-13T14:26:13;4.50;;;2.00;;
70303;SDS011;57712;48.752;11.348;2023-07-13T14:28:43;5.25;;;2.20;;
70303;SDS011;57712;48.752;11.348;2023-07-13T14:31:12;7.78;;;1.92;;
70303;SDS011;57712;48.752;11.348;2023-07-13T14:33:40;4.45;;;1.60;;
70303;SDS011;57712;48.752;11.348;2023-07-13T14:38:56;5.07;;;1.60;;
70303;SDS011;57712;48.752;11.348;2023-07-13T14:41:24;4.40;;;1.70;;
70303;SDS011;57712;48.752;11.348;2023-07-13T14:43:52;5.85;;;1.50;;
70303;SDS011;57712;48.752;11.348;2023-07-13T14:46:24;5.38;;;1.40;;
70303;SDS011;57712;48.752;11.348;2023-07-13T14:48:59;5.47;;;1.43;;
70303;SDS011;57712;48.752;11.348;2023-07-13T14:51:28;5.18;;;1.55;;
70303;SDS011;57712;48.752;11.348;2023-07-13T14:53:55;4.65;;;1.40;;
70303;SDS011;57712;48.752;11.348;2023-07-13T14:56:22;4.78;;;1.33;;
70303;SDS011;57712;48.752;11.348;2023-07-13T14:58:48;4.82;;;1.35;;
70303;SDS011;57712;48.752;11.348;2023-07-13T15:01:15;3.93;;;1.40;;
70303;SDS011;57712;48.752;11.348;2023-07-13T15:03:44;4.75;;;1.85;;
70303;SDS011;57712;48.752;11.348;2023-07-13T15:06:15;5.28;;;1.70;;
70303;SDS011;57712;48.752;11.348;2023-07-13T15:08:41;5.60;;;1.70;;
70303;SDS011;57712;48.752;11.348;2023-07-13T15:11:08;5.25;;;1.70;;
70303;SDS011;57712;48.752;11.348;2023-07-13T15:13:39;4.43;;;1.67;;
70303;SDS011;57712;48.752;11.348;2023-07-13T15:16:23;4.70;;;1.42;;
70303;SDS011;57712;48.752;11.348;2023-07-13T15:18:51;5.95;;;1.80;;
70303;SDS011;57712;48.752;11.348;2023-07-13T15:21:22;5.25;;;1.52;;
70303;SDS011;57712;48.752;11.348;2023-07-13T15:23:51;4.85;;;1.83;;
70303;SDS011;57712;48.752;11.348;2023-07-13T15:26:18;4.53;;;1.33;;
70303;SDS011;57712;48.752;11.348;2023-07-13T15:28:46;4.55;;;1.80;;